Time;durP1;ratioP1;P1;durP2;ratioP2;P2;SDS_P1;SDS_P2;PMS_P1;PMS_P2;Temp;Humidity;BMP_temperature;BMP_pressure;BME280_temperature;BME280_humidity;BME280_pressure;Samples;Min_cycle;Max_cycle;Signal;HPM_P1;HPM_P2
2023/07/12 00:00:22;;;;;;;15.23;9.43;;;25.30;99.90;;;;;;4117552;28;20651;-75
2023/07/12 00:02:24;;;;;;;12.97;9.27;;;25.30;99.90;;;;;;4125226;28;20232;-76
2023/07/12 00:04:27;;;;;;;14.47;9.63;;;25.30;99.90;;;;;;4113816;28;20304;-75
2023/07/12 00:06:36;;;;;;;13.77;9.83;;;25.30;99.90;;;;;;4119307;28;20263;-75
2023/07/12 00:08:40;;;;;;;14.30;9.13;;;25.30;99.90;;;;;;4116560;28;20218;-75
2023/07/12 00:10:42;;;;;;;12.30;9.03;;;25.40;99.90;;;;;;4119168;28;20295;-76
2023/07/12 00:12:45;;;;;;;14.00;9.17;;;25.40;99.90;;;;;;4118215;28;20216;-75
2023/07/12 00:14:47;;;;;;;14.00;9.20;;;25.30;99.90;;;;;;4120232;28;20299;-76
2023/07/12 00:16:49;;;;;;;12.17;8.80;;;25.30;99.90;;;;;;4115313;28;20213;-76
2023/07/12 00:18:51;;;;;;;11.40;8.47;;;25.30;99.90;;;;;;4117026;28;20273;-75
2023/07/12 00:20:54;;;;;;;10.97;8.40;;;25.20;99.90;;;;;;4119803;28;20237;-76
2023/07/12 00:22:57;;;;;;;14.30;9.93;;;25.20;99.90;;;;;;4113396;28;20221;-76
2023/07/12 00:24:58;;;;;;;13.27;8.63;;;25.20;99.90;;;;;;4105880;28;20224;-76
2023/07/12 00:27:00;;;;;;;12.00;9.07;;;25.20;99.90;;;;;;4117596;28;20773;-76
2023/07/12 00:29:05;;;;;;;13.03;8.87;;;25.20;99.90;;;;;;4117334;28;20271;-75
2023/07/12 00:31:09;;;;;;;16.10;8.83;;;25.10;99.90;;;;;;4119469;28;20324;-75
2023/07/12 00:33:11;;;;;;;14.93;9.10;;;25.10;99.90;;;;;;4120312;28;20216;-76
2023/07/12 00:35:16;;;;;;;13.20;8.87;;;25.10;99.90;;;;;;4116150;28;20223;-75
2023/07/12 00:37:18;;;;;;;15.83;8.93;;;25.10;99.90;;;;;;4114706;28;20206;-75
2023/07/12 00:39:20;;;;;;;13.40;8.70;;;25.10;99.90;;;;;;4114521;28;20217;-76
2023/07/12 00:41:30;;;;;;;15.53;9.37;;;25.10;99.90;;;;;;4116781;28;20255;-76
2023/07/12 00:43:37;;;;;;;14.07;9.07;;;25.10;99.90;;;;;;4116670;28;20204;-75
2023/07/12 00:45:40;;;;;;;12.27;8.70;;;25.10;99.90;;;;;;4116001;28;20223;-75
2023/07/12 00:47:44;;;;;;;15.60;9.17;;;25.10;99.90;;;;;;4112622;28;20587;-75
2023/07/12 00:49:46;;;;;;;12.77;8.83;;;25.10;99.90;;;;;;4116102;28;20217;-75
2023/07/12 00:51:53;;;;;;;14.00;8.83;;;25.10;99.90;;;;;;4120836;28;20228;-76
2023/07/12 00:53:55;;;;;;;14.43;8.87;;;25.00;99.90;;;;;;4111806;28;20308;-75
2023/07/12 00:56:02;;;;;;;15.17;9.60;;;25.00;99.90;;;;;;4114734;28;20213;-75
2023/07/12 00:58:04;;;;;;;14.20;9.20;;;25.00;99.90;;;;;;4109923;28;20299;-75
2023/07/12 01:00:10;;;;;;;15.03;9.40;;;25.00;99.90;;;;;;4119711;28;20217;-75
2023/07/12 01:02:15;;;;;;;11.83;8.60;;;25.00;99.90;;;;;;4115797;28;20843;-75
2023/07/12 01:04:22;;;;;;;13.30;8.83;;;25.00;99.90;;;;;;4115232;28;20217;-75
2023/07/12 01:06:25;;;;;;;14.03;8.57;;;25.00;99.90;;;;;;4115783;28;20213;-75
2023/07/12 01:08:28;;;;;;;13.73;8.77;;;25.00;99.90;;;;;;4115158;28;20239;-75
2023/07/12 01:10:30;;;;;;;10.73;7.77;;;25.00;99.90;;;;;;4113935;28;20213;-75
2023/07/12 01:12:32;;;;;;;12.70;8.20;;;25.00;99.90;;;;;;4115363;28;20201;-74
2023/07/12 01:14:34;;;;;;;13.27;8.57;;;25.00;99.90;;;;;;4115984;28;20308;-75
2023/07/12 01:16:36;;;;;;;12.50;7.90;;;24.90;99.90;;;;;;4116402;28;20231;-76
2023/07/12 01:18:39;;;;;;;12.17;8.20;;;24.90;99.90;;;;;;4117284;28;20300;-76
2023/07/12 01:20:43;;;;;;;14.57;8.13;;;24.90;99.90;;;;;;4115430;28;20212;-76
2023/07/12 01:22:46;;;;;;;12.67;7.60;;;24.90;99.90;;;;;;4112692;28;20221;-75
2023/07/12 01:24:47;;;;;;;14.03;7.90;;;25.00;99.90;;;;;;4120099;28;20300;-76
2023/07/12 01:26:51;;;;;;;13.27;7.57;;;25.00;99.90;;;;;;4119061;28;20201;-76
2023/07/12 01:28:56;;;;;;;11.30;7.30;;;25.00;99.90;;;;;;4116746;28;20228;-76
2023/07/12 01:30:57;;;;;;;12.80;7.63;;;25.00;99.90;;;;;;4114508;28;20258;-76
2023/07/12 01:32:59;;;;;;;11.77;7.57;;;25.00;99.90;;;;;;4117958;28;20244;-76
2023/07/12 01:35:01;;;;;;;9.57;7.27;;;25.00;99.90;;;;;;4111746;28;20339;-76
2023/07/12 01:37:04;;;;;;;10.80;7.60;;;25.00;99.90;;;;;;4114551;28;20214;-76
2023/07/12 01:39:08;;;;;;;11.03;6.83;;;25.00;99.90;;;;;;4111951;28;20252;-76
2023/07/12 01:41:10;;;;;;;9.23;6.77;;;25.00;99.90;;;;;;4110535;28;20247;-76
2023/07/12 01:43:12;;;;;;;11.83;7.20;;;25.00;99.90;;;;;;4109057;28;20213;-76
2023/07/12 01:45:14;;;;;;;11.20;7.13;;;25.00;99.90;;;;;;4113262;28;20224;-76
2023/07/12 01:47:16;;;;;;;12.77;7.43;;;25.00;99.90;;;;;;4109928;28;20231;-76
2023/07/12 01:49:18;;;;;;;10.87;6.90;;;25.00;99.90;;;;;;4111262;28;20213;-73
2023/07/12 01:51:20;;;;;;;14.40;7.77;;;25.00;99.90;;;;;;4115584;28;20236;-73
2023/07/12 01:53:22;;;;;;;12.13;6.93;;;25.10;99.90;;;;;;4119420;28;20248;-73
2023/07/12 01:55:25;;;;;;;9.87;6.77;;;25.10;99.90;;;;;;4119318;28;20217;-73
2023/07/12 01:57:27;;;;;;;12.30;7.03;;;25.20;99.90;;;;;;4117747;28;20213;-73
2023/07/12 01:59:28;;;;;;;10.97;6.10;;;25.20;99.90;;;;;;4118076;28;20291;-73
2023/07/12 02:01:30;;;;;;;10.53;6.07;;;25.20;99.90;;;;;;4114781;28;20331;-73
2023/07/12 02:03:32;;;;;;;10.77;5.60;;;25.30;99.90;;;;;;4115656;28;20216;-73
2023/07/12 02:05:34;;;;;;;8.77;5.40;;;25.30;99.90;;;;;;4112483;28;20212;-73
2023/07/12 02:07:35;;;;;;;15.07;5.60;;;25.40;99.90;;;;;;4112846;28;20221;-73
2023/07/12 02:09:40;;;;;;;7.30;4.60;;;25.40;99.90;;;;;;4114587;28;20267;-73
2023/07/12 02:11:43;;;;;;;12.90;4.40;;;25.50;99.90;;;;;;4115441;28;20225;-73
2023/07/12 02:13:45;;;;;;;8.70;4.20;;;25.50;99.90;;;;;;4114158;28;20680;-73
2023/07/12 02:15:47;;;;;;;8.10;4.23;;;25.50;99.90;;;;;;4116773;28;20227;-73
2023/07/12 02:17:48;;;;;;;5.87;4.03;;;25.60;99.90;;;;;;4115914;28;20260;-73
2023/07/12 02:19:50;;;;;;;8.07;3.63;;;25.60;99.90;;;;;;4115835;28;20228;-73
2023/07/12 02:21:52;;;;;;;8.77;3.70;;;25.60;99.90;;;;;;4116654;28;20233;-73
2023/07/12 02:23:54;;;;;;;7.00;3.50;;;25.70;99.90;;;;;;4115300;28;20244;-73
2023/07/12 02:25:55;;;;;;;7.77;3.50;;;25.70;99.90;;;;;;4113750;28;20223;-73
2023/07/12 02:27:58;;;;;;;5.80;3.53;;;25.70;99.90;;;;;;4116690;28;20212;-73
2023/07/12 02:30:00;;;;;;;10.47;3.40;;;25.70;99.90;;;;;;4113899;28;20224;-73
2023/07/12 02:32:02;;;;;;;5.77;3.37;;;25.70;99.90;;;;;;4111573;28;20233;-73
2023/07/12 02:34:04;;;;;;;8.07;3.77;;;25.70;99.90;;;;;;4112257;28;20303;-73
2023/07/12 02:36:06;;;;;;;6.10;3.77;;;25.70;99.90;;;;;;4115646;28;20209;-73
2023/07/12 02:38:08;;;;;;;6.43;3.77;;;25.70;99.90;;;;;;4115515;28;20205;-73
2023/07/12 02:40:11;;;;;;;5.40;3.30;;;25.70;99.90;;;;;;4114206;28;20801;-73
2023/07/12 02:42:13;;;;;;;7.00;3.80;;;25.70;99.90;;;;;;4113797;28;20244;-73
2023/07/12 02:44:16;;;;;;;7.37;3.73;;;25.70;99.90;;;;;;4115000;28;20209;-73
2023/07/12 02:46:18;;;;;;;8.70;3.03;;;25.60;99.90;;;;;;4113904;28;20217;-73
2023/07/12 02:48:20;;;;;;;5.00;2.97;;;25.60;99.90;;;;;;4113982;28;20220;-73
2023/07/12 02:50:22;;;;;;;6.13;3.40;;;25.60;99.90;;;;;;4114949;28;20217;-73
2023/07/12 02:52:24;;;;;;;8.87;3.20;;;25.60;99.90;;;;;;4115429;28;20589;-73
2023/07/12 02:54:25;;;;;;;9.23;3.27;;;25.60;99.90;;;;;;4116448;28;20209;-73
2023/07/12 02:56:27;;;;;;;6.00;3.60;;;25.60;99.90;;;;;;4115589;28;20205;-73
2023/07/12 02:58:29;;;;;;;7.90;3.80;;;25.50;99.90;;;;;;4114027;28;20223;-73
2023/07/12 03:00:32;;;;;;;7.97;3.50;;;25.50;99.90;;;;;;4114088;28;20255;-73
2023/07/12 03:02:33;;;;;;;6.87;3.50;;;25.50;99.90;;;;;;4113731;28;20250;-73
2023/07/12 03:04:35;;;;;;;5.93;3.13;;;25.40;99.90;;;;;;4114413;28;20201;-73
2023/07/12 03:06:37;;;;;;;6.77;3.40;;;25.40;99.90;;;;;;4113882;28;20828;-73
2023/07/12 03:08:39;;;;;;;8.20;2.73;;;25.40;99.90;;;;;;4111927;28;20292;-73
2023/07/12 03:10:41;;;;;;;5.73;3.40;;;25.40;99.90;;;;;;4113200;28;20235;-73
2023/07/12 03:12:43;;;;;;;5.17;3.17;;;25.30;99.90;;;;;;4114698;28;20208;-73
2023/07/12 03:14:45;;;;;;;6.23;2.63;;;25.30;99.90;;;;;;4112838;28;20308;-73
2023/07/12 03:16:48;;;;;;;6.50;2.83;;;25.20;99.90;;;;;;4113673;28;20201;-74
2023/07/12 03:18:49;;;;;;;3.57;2.20;;;25.20;99.90;;;;;;4117050;28;20295;-73
2023/07/12 03:20:51;;;;;;;7.27;2.60;;;25.20;99.90;;;;;;4116079;28;20232;-76
2023/07/12 03:22:53;;;;;;;4.43;2.40;;;25.20;99.90;;;;;;4116926;28;20714;-76
2023/07/12 03:24:55;;;;;;;6.50;2.43;;;25.20;99.90;;;;;;4116673;28;20679;-76
2023/07/12 03:26:57;;;;;;;4.17;2.30;;;25.10;99.90;;;;;;4117208;28;20212;-76
2023/07/12 03:28:59;;;;;;;4.80;2.13;;;25.10;99.90;;;;;;4115587;28;20303;-76
2023/07/12 03:31:03;;;;;;;3.33;2.20;;;25.00;99.90;;;;;;4117695;28;20330;-76
2023/07/12 03:33:06;;;;;;;3.60;2.03;;;25.00;99.90;;;;;;4119226;28;20213;-76
2023/07/12 03:35:09;;;;;;;3.97;2.27;;;25.00;99.90;;;;;;4118769;28;20213;-76
2023/07/12 03:37:12;;;;;;;5.73;2.30;;;24.90;99.90;;;;;;4116907;28;20220;-75
2023/07/12 03:39:14;;;;;;;4.50;2.20;;;24.90;99.90;;;;;;4121581;28;20244;-76
2023/07/12 03:41:16;;;;;;;5.20;2.10;;;24.90;99.90;;;;;;4116262;28;20253;-76
2023/07/12 03:43:18;;;;;;;3.63;2.13;;;24.80;99.90;;;;;;4119632;28;20308;-76
2023/07/12 03:45:21;;;;;;;3.20;2.13;;;24.80;99.90;;;;;;4115026;28;20213;-76
2023/07/12 03:47:22;;;;;;;3.83;2.30;;;24.80;99.90;;;;;;4116429;28;20202;-76
2023/07/12 03:49:26;;;;;;;7.10;2.60;;;24.70;99.90;;;;;;4116019;28;20224;-76
2023/07/12 03:51:27;;;;;;;5.43;2.30;;;24.60;99.90;;;;;;4118805;28;20242;-76
2023/07/12 03:53:29;;;;;;;5.40;2.40;;;24.60;99.90;;;;;;4118736;28;20308;-76
2023/07/12 03:55:31;;;;;;;6.70;2.20;;;24.60;99.90;;;;;;4115021;28;20590;-75
2023/07/12 03:57:33;;;;;;;6.07;2.50;;;24.60;99.90;;;;;;4118512;28;20209;-76
2023/07/12 03:59:35;;;;;;;6.20;2.23;;;24.50;99.90;;;;;;4121279;28;20209;-78
2023/07/12 04:01:37;;;;;;;5.23;2.30;;;24.50;99.90;;;;;;4117523;28;20252;-79
2023/07/12 04:03:39;;;;;;;4.77;2.50;;;24.50;99.90;;;;;;4117361;28;20229;-79
2023/07/12 04:05:44;;;;;;;4.67;2.50;;;24.40;99.90;;;;;;4117269;28;20225;-79
2023/07/12 04:07:45;;;;;;;6.73;2.50;;;24.30;99.90;;;;;;4120205;28;20311;-79
2023/07/12 04:09:47;;;;;;;6.60;2.50;;;24.20;99.90;;;;;;4119874;28;20816;-77
2023/07/12 04:11:49;;;;;;;5.50;2.50;;;24.20;99.90;;;;;;4117321;28;20229;-77
2023/07/12 04:13:51;;;;;;;4.03;2.57;;;24.00;99.90;;;;;;4116065;28;20241;-77
2023/07/12 04:15:55;;;;;;;4.03;2.33;;;24.00;99.90;;;;;;4115726;28;20304;-76
2023/07/12 04:17:56;;;;;;;7.37;2.53;;;23.80;99.90;;;;;;4116998;28;20217;-77
2023/07/12 04:19:59;;;;;;;8.80;2.97;;;23.80;99.90;;;;;;4119919;28;20223;-76
2023/07/12 04:22:02;;;;;;;5.00;2.30;;;23.80;99.90;;;;;;4121564;28;20255;-77
2023/07/12 04:24:04;;;;;;;4.87;3.20;;;23.80;99.90;;;;;;4118671;28;20237;-77
2023/07/12 04:26:06;;;;;;;5.63;2.70;;;23.70;99.90;;;;;;4112188;28;20209;-75
2023/07/12 04:28:08;;;;;;;3.90;2.30;;;23.60;99.90;;;;;;4113484;28;20307;-76
2023/07/12 04:30:13;;;;;;;4.20;2.10;;;23.60;99.90;;;;;;4113134;28;20216;-76
2023/07/12 04:32:14;;;;;;;5.23;2.03;;;23.60;99.90;;;;;;4115329;28;20267;-74
2023/07/12 04:34:16;;;;;;;4.20;2.60;;;23.60;99.90;;;;;;4117698;28;20205;-77
2023/07/12 04:36:19;;;;;;;2.73;1.87;;;23.60;99.90;;;;;;4115188;28;20615;-77
2023/07/12 04:38:22;;;;;;;4.90;2.50;;;23.60;99.90;;;;;;4116991;28;20277;-75
2023/07/12 04:40:24;;;;;;;5.13;2.20;;;23.50;99.90;;;;;;4116894;28;20220;-78
2023/07/12 04:42:26;;;;;;;7.60;2.30;;;23.50;99.90;;;;;;4117715;28;20236;-77
2023/07/12 04:44:28;;;;;;;4.73;2.43;;;23.50;99.90;;;;;;4113794;28;20244;-77
2023/07/12 04:46:30;;;;;;;3.97;2.23;;;23.60;99.90;;;;;;4115718;28;20240;-75
2023/07/12 04:48:33;;;;;;;6.73;2.23;;;23.50;99.90;;;;;;4115819;28;20213;-78
2023/07/12 04:50:35;;;;;;;4.87;1.90;;;23.50;99.90;;;;;;4118212;28;20209;-78
2023/07/12 04:52:36;;;;;;;7.00;2.40;;;23.50;99.90;;;;;;4116218;28;20711;-76
2023/07/12 04:54:41;;;;;;;4.43;2.37;;;23.50;99.90;;;;;;4115976;28;20212;-78
2023/07/12 04:56:43;;;;;;;4.80;2.00;;;23.50;99.90;;;;;;4118706;28;20303;-77
2023/07/12 04:58:45;;;;;;;5.77;2.07;;;23.50;99.90;;;;;;4115960;28;20535;-78
2023/07/12 05:00:47;;;;;;;6.50;2.17;;;23.60;99.90;;;;;;4119140;28;20388;-78
2023/07/12 05:02:49;;;;;;;3.77;1.90;;;23.50;99.90;;;;;;4121281;28;20733;-78
2023/07/12 05:04:51;;;;;;;4.07;2.03;;;23.50;99.90;;;;;;4121936;28;20228;-78
2023/07/12 05:06:53;;;;;;;8.00;2.17;;;23.60;99.90;;;;;;4119385;28;20213;-77
2023/07/12 05:08:55;;;;;;;3.27;2.10;;;23.50;99.90;;;;;;4114863;28;20296;-78
2023/07/12 05:11:00;;;;;;;6.63;2.30;;;23.50;99.90;;;;;;4117021;28;20247;-78
2023/07/12 05:13:03;;;;;;;5.60;2.00;;;23.50;99.90;;;;;;4117947;28;20593;-77
2023/07/12 05:15:06;;;;;;;5.07;2.77;;;23.50;99.90;;;;;;4113564;28;20213;-78
2023/07/12 05:17:08;;;;;;;6.13;2.20;;;23.50;99.90;;;;;;4120730;28;20208;-78
2023/07/12 05:19:09;;;;;;;5.33;2.30;;;23.50;99.90;;;;;;4121260;28;20209;-78
2023/07/12 05:21:12;;;;;;;6.03;1.80;;;23.40;99.90;;;;;;4125163;28;20288;-78
2023/07/12 05:23:14;;;;;;;6.47;2.30;;;23.40;99.90;;;;;;4126076;28;20237;-78
2023/07/12 05:25:16;;;;;;;6.03;2.27;;;23.50;99.90;;;;;;4127150;28;20643;-75
2023/07/12 05:27:19;;;;;;;5.50;2.30;;;23.40;99.90;;;;;;4119652;28;20553;-78
2023/07/12 05:29:22;;;;;;;3.73;1.97;;;23.50;99.90;;;;;;4117968;28;20216;-79
2023/07/12 05:31:24;;;;;;;3.23;1.93;;;23.60;99.90;;;;;;4119447;28;20333;-78
2023/07/12 05:33:26;;;;;;;5.03;2.00;;;23.60;99.90;;;;;;4118562;28;20639;-78
2023/07/12 05:35:28;;;;;;;3.30;1.80;;;23.70;99.90;;;;;;4119786;28;20750;-77
2023/07/12 05:37:30;;;;;;;4.07;2.13;;;23.70;99.90;;;;;;4114742;28;20252;-76
2023/07/12 05:39:32;;;;;;;3.80;2.20;;;23.80;99.90;;;;;;4118464;28;20766;-79
2023/07/12 05:41:33;;;;;;;5.37;2.40;;;23.80;99.90;;;;;;4119741;28;20237;-78
2023/07/12 05:43:37;;;;;;;4.10;2.10;;;23.80;99.90;;;;;;4118641;28;20229;-78
2023/07/12 05:45:39;;;;;;;4.33;1.77;;;23.90;99.90;;;;;;4120276;28;20670;-78
2023/07/12 05:47:45;;;;;;;7.90;2.27;;;23.90;99.90;;;;;;4117331;28;20310;-76
2023/07/12 05:49:47;;;;;;;4.53;2.57;;;23.90;99.90;;;;;;4114986;28;20220;-77
2023/07/12 05:51:48;;;;;;;3.97;2.60;;;23.90;99.90;;;;;;4115602;28;20233;-78
2023/07/12 05:53:50;;;;;;;5.20;2.30;;;23.90;99.90;;;;;;4119189;28;20205;-79
2023/07/12 05:55:55;;;;;;;3.63;1.90;;;23.90;99.90;;;;;;4116076;28;20217;-78
2023/07/12 05:57:57;;;;;;;5.17;2.43;;;23.90;99.90;;;;;;4116146;28;20575;-77
2023/07/12 06:00:01;;;;;;;7.17;2.13;;;23.90;99.90;;;;;;4114411;28;20218;-77
2023/07/12 06:02:03;;;;;;;3.47;2.10;;;23.90;99.90;;;;;;4115298;28;20233;-77
2023/07/12 06:04:07;;;;;;;5.40;2.57;;;23.90;99.90;;;;;;4116443;28;20955;-77
2023/07/12 06:06:10;;;;;;;2.73;1.93;;;23.90;99.90;;;;;;4113651;28;20272;-77
2023/07/12 06:08:11;;;;;;;4.67;2.30;;;23.90;99.90;;;;;;4115146;28;20674;-77
2023/07/12 06:10:15;;;;;;;6.07;2.17;;;23.90;99.90;;;;;;4113293;28;20227;-77
2023/07/12 06:12:17;;;;;;;3.83;2.20;;;23.90;99.90;;;;;;4112165;28;20299;-77
2023/07/12 06:14:18;;;;;;;4.23;2.10;;;23.90;99.90;;;;;;4112966;28;20296;-77
2023/07/12 06:16:21;;;;;;;4.77;2.00;;;24.00;99.90;;;;;;4113874;28;20233;-76
2023/07/12 06:18:23;;;;;;;3.20;2.00;;;24.00;99.90;;;;;;4118071;28;20217;-77
2023/07/12 06:20:25;;;;;;;4.43;1.90;;;24.00;99.90;;;;;;4117400;28;20220;-77
2023/07/12 06:22:27;;;;;;;5.30;2.00;;;24.00;99.90;;;;;;4112680;28;20319;-76
2023/07/12 06:24:29;;;;;;;4.20;2.40;;;24.00;99.90;;;;;;4117332;28;20232;-77
2023/07/12 06:26:32;;;;;;;4.67;2.00;;;24.10;99.90;;;;;;4115094;28;20206;-77
2023/07/12 06:28:34;;;;;;;4.43;2.00;;;24.10;99.90;;;;;;4112217;28;20220;-77
2023/07/12 06:30:37;;;;;;;7.60;2.33;;;24.10;99.90;;;;;;4114239;28;20210;-77
2023/07/12 06:32:40;;;;;;;3.63;1.80;;;24.20;99.90;;;;;;4114503;28;20213;-77
2023/07/12 06:34:42;;;;;;;3.40;2.03;;;24.20;99.90;;;;;;4113630;28;20220;-76
2023/07/12 06:36:43;;;;;;;6.30;2.33;;;24.20;99.90;;;;;;4110744;28;20205;-77
2023/07/12 06:38:46;;;;;;;4.60;2.00;;;24.30;99.90;;;;;;4116073;28;20212;-77
2023/07/12 06:40:48;;;;;;;5.60;2.10;;;24.30;99.90;;;;;;4117669;28;20244;-77
2023/07/12 06:42:50;;;;;;;5.30;2.00;;;24.40;99.90;;;;;;4112311;28;20213;-77
2023/07/12 06:44:52;;;;;;;4.43;2.10;;;24.40;99.90;;;;;;4116356;28;20308;-77
2023/07/12 06:46:54;;;;;;;3.73;2.00;;;24.40;99.90;;;;;;4114984;28;20247;-77
2023/07/12 06:48:57;;;;;;;2.90;1.90;;;24.50;99.90;;;;;;4115350;28;20224;-77
2023/07/12 06:50:59;;;;;;;3.80;2.13;;;24.50;99.90;;;;;;4115365;28;20260;-77
2023/07/12 06:53:00;;;;;;;3.00;2.00;;;24.50;99.90;;;;;;4114040;28;20213;-77
2023/07/12 06:55:03;;;;;;;2.83;1.60;;;24.50;99.90;;;;;;4117535;28;20214;-77
2023/07/12 06:57:05;;;;;;;3.67;1.87;;;24.50;99.90;;;;;;4118174;28;20812;-77
2023/07/12 06:59:07;;;;;;;7.03;2.10;;;24.50;99.90;;;;;;4122775;28;20239;-77
2023/07/12 07:01:10;;;;;;;3.40;2.00;;;24.60;99.90;;;;;;4122131;28;20317;-77
2023/07/12 07:03:13;;;;;;;6.33;2.40;;;24.60;99.90;;;;;;4116849;28;20323;-77
2023/07/12 07:05:16;;;;;;;5.40;2.20;;;24.60;99.90;;;;;;4117632;28;20296;-77
2023/07/12 07:07:18;;;;;;;2.87;2.00;;;24.70;99.90;;;;;;4116846;28;20216;-77
2023/07/12 07:09:20;;;;;;;7.00;2.13;;;24.70;99.90;;;;;;4120216;28;20211;-77
2023/07/12 07:11:22;;;;;;;4.93;2.37;;;24.80;99.90;;;;;;4120224;28;20221;-77
2023/07/12 07:13:25;;;;;;;3.93;1.97;;;24.80;99.90;;;;;;4118413;28;20331;-76
2023/07/12 07:15:26;;;;;;;2.53;2.00;;;24.90;99.90;;;;;;4116133;28;20304;-76
2023/07/12 07:17:28;;;;;;;2.13;1.87;;;25.00;99.90;;;;;;4118418;28;20222;-76
2023/07/12 07:19:30;;;;;;;3.87;2.20;;;25.10;99.90;;;;;;4117106;28;20243;-76
2023/07/12 07:21:35;;;;;;;5.50;2.13;;;25.20;99.90;;;;;;4116786;28;20320;-76
2023/07/12 07:23:36;;;;;;;4.73;2.30;;;25.20;99.90;;;;;;4115915;28;20225;-76
2023/07/12 07:25:38;;;;;;;4.13;2.10;;;25.20;99.90;;;;;;4118197;28;20236;-76
2023/07/12 07:27:40;;;;;;;4.17;2.20;;;25.30;99.90;;;;;;4116751;28;20244;-76
2023/07/12 07:29:42;;;;;;;4.17;2.63;;;25.30;99.90;;;;;;4114366;28;20204;-76
2023/07/12 07:31:44;;;;;;;9.37;3.07;;;25.40;99.90;;;;;;4118887;28;20272;-76
2023/07/12 07:33:48;;;;;;;5.70;2.90;;;25.40;99.90;;;;;;4115908;28;20656;-76
2023/07/12 07:35:50;;;;;;;7.20;3.00;;;25.50;99.90;;;;;;4119661;28;20217;-76
2023/07/12 07:37:53;;;;;;;15.17;3.80;;;25.50;99.90;;;;;;4120713;28;20216;-76
2023/07/12 07:39:55;;;;;;;9.93;3.73;;;25.60;99.90;;;;;;4118136;28;20327;-76
2023/07/12 07:41:57;;;;;;;6.53;3.57;;;25.60;99.90;;;;;;4114855;28;20244;-76
2023/07/12 07:43:59;;;;;;;6.13;3.30;;;25.60;99.90;;;;;;4120737;28;20235;-76
2023/07/12 07:46:01;;;;;;;7.57;3.80;;;25.60;99.90;;;;;;4118913;28;20692;-76
2023/07/12 07:48:03;;;;;;;6.10;3.70;;;25.60;99.90;;;;;;4120227;28;20216;-76
2023/07/12 07:50:06;;;;;;;7.50;3.07;;;25.60;99.90;;;;;;4118903;28;20209;-76
2023/07/12 07:52:08;;;;;;;7.67;3.70;;;25.60;99.90;;;;;;4120704;28;20661;-76
2023/07/12 07:54:11;;;;;;;4.73;3.70;;;25.60;99.90;;;;;;4121115;28;20205;-76
2023/07/12 07:56:13;;;;;;;8.27;3.40;;;25.60;99.90;;;;;;4119799;28;20223;-77
2023/07/12 07:58:16;;;;;;;5.97;4.17;;;25.60;99.90;;;;;;4117322;28;20201;-76
2023/07/12 08:00:18;;;;;;;9.17;3.87;;;25.60;99.90;;;;;;4113900;28;20212;-76
2023/07/12 08:02:22;;;;;;;9.70;4.07;;;25.70;99.90;;;;;;4117253;28;20228;-76
2023/07/12 08:04:24;;;;;;;9.37;3.80;;;25.80;99.90;;;;;;4119649;28;20247;-76
2023/07/12 08:06:27;;;;;;;8.77;4.30;;;25.90;99.90;;;;;;4117745;28;20295;-76
2023/07/12 08:08:29;;;;;;;5.27;3.77;;;25.90;99.90;;;;;;4119900;28;20267;-76
2023/07/12 08:10:33;;;;;;;7.83;3.87;;;25.90;99.90;;;;;;4118224;28;20211;-77
2023/07/12 08:12:35;;;;;;;7.80;3.60;;;25.90;99.90;;;;;;4115659;28;20224;-77
2023/07/12 08:14:37;;;;;;;4.20;3.20;;;25.80;99.90;;;;;;4113443;28;20212;-76
2023/07/12 08:16:38;;;;;;;4.80;3.07;;;25.80;99.90;;;;;;4113242;28;20296;-76
2023/07/12 08:18:39;;;;;;;7.10;3.70;;;25.70;99.90;;;;;;4116488;28;20616;-76
2023/07/12 08:20:42;;;;;;;6.33;3.07;;;25.60;99.90;;;;;;4120959;28;20209;-77
2023/07/12 08:22:44;;;;;;;8.00;3.27;;;25.50;99.90;;;;;;4114409;28;20204;-76
2023/07/12 08:24:46;;;;;;;5.60;2.90;;;25.40;99.90;;;;;;4115812;28;20239;-76
2023/07/12 08:26:49;;;;;;;4.63;2.80;;;25.40;99.90;;;;;;4117424;28;20215;-77
2023/07/12 08:28:51;;;;;;;7.53;2.77;;;25.40;99.90;;;;;;4118816;28;20297;-76
2023/07/12 08:30:52;;;;;;;4.43;2.87;;;25.40;99.90;;;;;;4114219;28;20241;-76
2023/07/12 08:32:54;;;;;;;5.57;3.00;;;25.40;99.90;;;;;;4111899;28;20276;-76
2023/07/12 08:34:56;;;;;;;5.10;2.73;;;25.40;99.90;;;;;;4115883;28;20303;-76
2023/07/12 08:36:58;;;;;;;5.80;2.67;;;25.40;99.90;;;;;;4118893;28;20296;-76
2023/07/12 08:38:59;;;;;;;4.77;2.60;;;25.30;99.90;;;;;;4113778;28;20585;-76
2023/07/12 08:41:01;;;;;;;7.33;2.50;;;25.20;99.90;;;;;;4120211;28;20311;-76
2023/07/12 08:43:11;;;;;;;5.57;2.40;;;25.20;99.90;;;;;;4119066;28;20312;-77
2023/07/12 08:45:22;;;;;;;4.50;2.87;;;25.20;99.90;;;;;;4115031;28;20384;-76
2023/07/12 08:47:27;;;;;;;4.40;2.40;;;25.10;99.90;;;;;;4118423;28;20221;-76
2023/07/12 08:49:29;;;;;;;4.80;2.80;;;25.20;99.90;;;;;;4117756;28;20218;-76
2023/07/12 08:51:35;;;;;;;6.93;2.97;;;25.40;99.90;;;;;;4118310;28;20224;-76
2023/07/12 08:53:40;;;;;;;5.17;2.70;;;25.50;99.90;;;;;;4118133;28;20347;-76
2023/07/12 08:55:42;;;;;;;5.57;2.57;;;25.60;99.90;;;;;;4116806;28;20213;-76
2023/07/12 08:57:45;;;;;;;3.70;2.37;;;25.80;99.90;;;;;;4116443;28;20223;-76
2023/07/12 08:59:58;;;;;;;4.57;2.27;;;25.90;99.90;;;;;;4118451;28;20304;-76
2023/07/12 09:02:03;;;;;;;4.20;2.30;;;26.00;99.90;;;;;;4116449;28;20228;-76
2023/07/12 09:04:24;;;;;;;4.87;2.53;;;26.10;99.90;;;;;;4120542;28;20229;-76
2023/07/12 09:06:26;;;;;;;3.57;2.40;;;26.00;99.90;;;;;;4115196;28;20209;-76
2023/07/12 09:08:34;;;;;;;4.17;2.43;;;26.00;99.90;;;;;;4116041;28;20214;-76
2023/07/12 09:10:43;;;;;;;4.13;2.30;;;26.00;99.90;;;;;;4113810;28;20201;-76
2023/07/12 09:12:52;;;;;;;3.40;2.27;;;26.00;99.90;;;;;;4112086;28;20211;-76
2023/07/12 09:14:58;;;;;;;4.43;2.57;;;26.10;99.90;;;;;;4112835;28;20212;-76
2023/07/12 09:17:00;;;;;;;5.77;2.60;;;26.00;99.90;;;;;;4115654;28;20213;-76
2023/07/12 09:19:14;;;;;;;3.60;2.20;;;26.00;99.90;;;;;;4117484;28;20215;-76
2023/07/12 09:21:22;;;;;;;3.73;2.43;;;26.00;99.90;;;;;;4115635;28;20235;-76
2023/07/12 09:23:24;;;;;;;3.40;2.13;;;26.10;99.90;;;;;;4115050;28;20217;-76
2023/07/12 09:25:28;;;;;;;3.47;2.00;;;26.20;99.90;;;;;;4115989;28;20234;-76
2023/07/12 09:27:30;;;;;;;4.30;2.03;;;26.30;99.90;;;;;;4118788;28;20742;-76
2023/07/12 09:29:33;;;;;;;3.57;2.17;;;26.40;99.90;;;;;;4116890;28;20209;-76
2023/07/12 09:31:40;;;;;;;3.20;2.00;;;26.30;99.90;;;;;;4112895;28;20235;-76
2023/07/12 09:33:48;;;;;;;2.70;1.73;;;26.30;99.90;;;;;;4115746;28;20248;-77
2023/07/12 09:35:51;;;;;;;2.90;1.73;;;26.30;99.90;;;;;;4121475;28;20687;-77
2023/07/12 09:37:58;;;;;;;3.83;1.80;;;26.30;99.90;;;;;;4119174;28;20237;-76
2023/07/12 09:40:02;;;;;;;4.00;2.03;;;26.30;99.90;;;;;;4115402;28;20238;-76
2023/07/12 09:42:04;;;;;;;4.47;2.27;;;26.40;99.90;;;;;;4117885;28;20295;-76
2023/07/12 09:44:09;;;;;;;5.07;2.50;;;26.40;99.90;;;;;;4116971;28;20730;-76
2023/07/12 09:46:19;;;;;;;3.27;2.60;;;26.40;99.90;;;;;;4117439;28;20301;-77
2023/07/12 09:48:29;;;;;;;6.23;3.13;;;26.40;99.90;;;;;;4115328;28;20205;-76
2023/07/12 09:50:40;;;;;;;3.73;2.20;;;26.40;99.90;;;;;;4114820;28;20209;-76
2023/07/12 09:52:56;;;;;;;4.10;2.20;;;26.40;99.90;;;;;;4114143;28;20283;-77
2023/07/12 09:55:04;;;;;;;3.70;2.07;;;26.40;99.90;;;;;;4115317;28;20231;-76
2023/07/12 09:57:15;;;;;;;6.30;2.80;;;26.30;99.90;;;;;;4116773;28;20208;-77
2023/07/12 09:59:30;;;;;;;3.03;2.10;;;26.40;99.90;;;;;;4113397;28;20638;-76
2023/07/12 10:01:39;;;;;;;6.03;2.47;;;26.50;99.90;;;;;;4119078;28;21110;-76
2023/07/12 10:03:46;;;;;;;4.70;2.57;;;26.60;99.90;;;;;;4115722;28;20209;-76
2023/07/12 10:05:55;;;;;;;7.33;2.70;;;26.70;99.90;;;;;;4114243;28;20601;-76
2023/07/12 10:08:02;;;;;;;4.17;2.67;;;26.70;99.90;;;;;;4117590;28;20216;-76
2023/07/12 10:10:16;;;;;;;4.03;2.80;;;26.70;99.90;;;;;;4118211;28;20600;-77
2023/07/12 10:12:27;;;;;;;3.20;2.63;;;26.80;99.90;;;;;;4119106;28;20236;-76
2023/07/12 10:14:34;;;;;;;5.10;2.57;;;26.90;99.90;;;;;;4115916;28;20210;-76
2023/07/12 10:16:44;;;;;;;3.73;2.30;;;27.00;99.90;;;;;;4113020;28;20300;-76
2023/07/12 10:18:50;;;;;;;3.60;2.33;;;27.20;99.90;;;;;;4115013;28;20251;-76
2023/07/12 10:20:51;;;;;;;7.00;2.60;;;27.50;99.90;;;;;;4112533;28;20235;-76
2023/07/12 10:22:54;;;;;;;3.70;2.30;;;27.70;99.90;;;;;;4115555;28;20274;-76
2023/07/12 10:24:59;;;;;;;3.63;1.80;;;27.80;99.90;;;;;;4110320;28;20240;-76
2023/07/12 10:27:04;;;;;;;5.07;2.00;;;28.00;99.90;;;;;;4114329;28;20678;-77
2023/07/12 10:29:11;;;;;;;4.17;2.03;;;28.00;99.90;;;;;;4113775;28;20794;-76
2023/07/12 10:31:30;;;;;;;2.50;2.03;;;28.00;99.90;;;;;;4118078;28;20711;-76
2023/07/12 10:33:37;;;;;;;5.53;2.47;;;28.00;99.90;;;;;;4114567;28;20205;-76
2023/07/12 10:35:45;;;;;;;6.17;2.43;;;27.80;99.90;;;;;;4111837;28;20232;-76
2023/07/12 10:37:51;;;;;;;5.03;2.67;;;27.70;99.90;;;;;;4113820;28;20295;-76
2023/07/12 10:39:54;;;;;;;3.50;1.90;;;27.70;99.90;;;;;;4114431;28;20212;-76